sensor_id;sensor_type;location;lat;lon;timestamp;temperature;humidity
8914;DHT22;4492;48.736;9.092;2022-07-11T00:01:43;11.80;99.90
8914;DHT22;4492;48.736;9.092;2022-07-11T00:04:09;11.80;99.90
8914;DHT22;4492;48.736;9.092;2022-07-11T00:06:34;11.90;99.90
8914;DHT22;4492;48.736;9.092;2022-07-11T00:09:00;12.00;99.90
8914;DHT22;4492;48.736;9.092;2022-07-11T00:11:26;12.00;99.90
8914;DHT22;4492;48.736;9.092;2022-07-11T00:13:52;12.10;99.90
8914;DHT22;4492;48.736;9.092;2022-07-11T00:16:17;12.30;99.90
8914;DHT22;4492;48.736;9.092;2022-07-11T00:18:43;12.40;99.90
8914;DHT22;4492;48.736;9.092;2022-07-11T00:21:08;12.50;99.90
8914;DHT22;4492;48.736;9.092;2022-07-11T00:23:34;12.70;99.90
8914;DHT22;4492;48.736;9.092;2022-07-11T00:26:00;12.80;99.90
8914;DHT22;4492;48.736;9.092;2022-07-11T00:28:25;12.90;99.90
8914;DHT22;4492;48.736;9.092;2022-07-11T00:30:51;12.90;99.90
8914;DHT22;4492;48.736;9.092;2022-07-11T00:33:18;13.10;99.90
8914;DHT22;4492;48.736;9.092;2022-07-11T00:35:44;13.20;99.90
8914;DHT22;4492;48.736;9.092;2022-07-11T00:38:09;13.30;99.90
8914;DHT22;4492;48.736;9.092;2022-07-11T00:40:35;13.30;99.90
8914;DHT22;4492;48.736;9.092;2022-07-11T00:43:03;13.30;99.90
8914;DHT22;4492;48.736;9.092;2022-07-11T00:45:29;13.30;99.90
8914;DHT22;4492;48.736;9.092;2022-07-11T00:47:55;13.20;99.90
8914;DHT22;4492;48.736;9.092;2022-07-11T00:50:24;13.20;99.90
8914;DHT22;4492;48.736;9.092;2022-07-11T00:52:51;13.20;99.90
8914;DHT22;4492;48.736;9.092;2022-07-11T00:55:18;13.20;99.90
8914;DHT22;4492;48.736;9.092;2022-07-11T00:57:44;13.20;99.90
8914;DHT22;4492;48.736;9.092;2022-07-11T01:00:10;13.20;99.90
8914;DHT22;4492;48.736;9.092;2022-07-11T01:02:36;13.20;99.90
8914;DHT22;4492;48.736;9.092;2022-07-11T01:05:02;13.10;99.90
8914;DHT22;4492;48.736;9.092;2022-07-11T01:07:29;13.10;99.90
8914;DHT22;4492;48.736;9.092;2022-07-11T01:09:55;13.10;99.90
8914;DHT22;4492;48.736;9.092;2022-07-11T01:12:21;13.00;99.90
8914;DHT22;4492;48.736;9.092;2022-07-11T01:14:54;13.00;99.90
8914;DHT22;4492;48.736;9.092;2022-07-11T01:17:20;13.00;99.90
8914;DHT22;4492;48.736;9.092;2022-07-11T01:19:46;12.90;99.90
8914;DHT22;4492;48.736;9.092;2022-07-11T01:22:14;12.90;99.90
8914;DHT22;4492;48.736;9.092;2022-07-11T01:24:42;12.90;99.90
8914;DHT22;4492;48.736;9.092;2022-07-11T01:27:08;12.90;99.90
8914;DHT22;4492;48.736;9.092;2022-07-11T01:29:34;12.90;99.90
8914;DHT22;4492;48.736;9.092;2022-07-11T01:32:00;12.90;99.90
8914;DHT22;4492;48.736;9.092;2022-07-11T01:34:25;12.90;99.90
8914;DHT22;4492;48.736;9.092;2022-07-11T01:36:51;12.90;99.90
8914;DHT22;4492;48.736;9.092;2022-07-11T01:39:17;12.90;99.90
8914;DHT22;4492;48.736;9.092;2022-07-11T01:41:42;12.90;99.90
8914;DHT22;4492;48.736;9.092;2022-07-11T01:44:08;12.90;99.90
8914;DHT22;4492;48.736;9.092;2022-07-11T01:46:33;12.90;99.90
8914;DHT22;4492;48.736;9.092;2022-07-11T01:48:59;12.90;99.90
8914;DHT22;4492;48.736;9.092;2022-07-11T01:51:25;12.90;99.90
8914;DHT22;4492;48.736;9.092;2022-07-11T01:53:50;12.80;99.90
8914;DHT22;4492;48.736;9.092;2022-07-11T01:56:17;12.80;99.90
8914;DHT22;4492;48.736;9.092;2022-07-11T01:58:43;12.90;99.90
8914;DHT22;4492;48.736;9.092;2022-07-11T02:01:08;12.90;99.90
8914;DHT22;4492;48.736;9.092;2022-07-11T02:03:34;12.90;99.90
8914;DHT22;4492;48.736;9.092;2022-07-11T02:06:00;12.90;99.90
8914;DHT22;4492;48.736;9.092;2022-07-11T02:08:26;12.90;99.90
8914;DHT22;4492;48.736;9.092;2022-07-11T02:10:52;12.90;99.90
8914;DHT22;4492;48.736;9.092;2022-07-11T02:13:19;12.90;99.90
8914;DHT22;4492;48.736;9.092;2022-07-11T02:15:46;12.80;99.90
8914;DHT22;4492;48.736;9.092;2022-07-11T02:18:12;12.80;99.90
8914;DHT22;4492;48.736;9.092;2022-07-11T02:20:39;12.80;99.90
8914;DHT22;4492;48.736;9.092;2022-07-11T02:23:05;12.70;99.90
8914;DHT22;4492;48.736;9.092;2022-07-11T02:25:32;12.70;99.90
8914;DHT22;4492;48.736;9.092;2022-07-11T02:27:58;12.70;99.90
8914;DHT22;4492;48.736;9.092;2022-07-11T02:30:24;12.70;99.90
8914;DHT22;4492;48.736;9.092;2022-07-11T02:32:50;12.70;99.90
8914;DHT22;4492;48.736;9.092;2022-07-11T02:35:17;12.80;99.90
8914;DHT22;4492;48.736;9.092;2022-07-11T02:37:42;12.80;99.90
8914;DHT22;4492;48.736;9.092;2022-07-11T02:40:09;12.80;99.90
8914;DHT22;4492;48.736;9.092;2022-07-11T02:42:35;12.80;99.90
8914;DHT22;4492;48.736;9.092;2022-07-11T02:45:02;12.80;99.90
8914;DHT22;4492;48.736;9.092;2022-07-11T02:47:27;12.90;99.90
8914;DHT22;4492;48.736;9.092;2022-07-11T02:49:53;13.00;99.90
8914;DHT22;4492;48.736;9.092;2022-07-11T02:52:18;13.00;99.90
8914;DHT22;4492;48.736;9.092;2022-07-11T02:54:44;13.00;99.90
8914;DHT22;4492;48.736;9.092;2022-07-11T02:57:10;13.10;99.90
8914;DHT22;4492;48.736;9.092;2022-07-11T02:59:35;13.10;99.90
8914;DHT22;4492;48.736;9.092;2022-07-11T03:02:01;13.10;99.90
8914;DHT22;4492;48.736;9.092;2022-07-11T03:04:31;13.10;99.90
8914;DHT22;4492;48.736;9.092;2022-07-11T03:06:56;13.20;99.90
8914;DHT22;4492;48.736;9.092;2022-07-11T03:09:22;13.20;99.90
8914;DHT22;4492;48.736;9.092;2022-07-11T03:11:49;13.20;99.90
8914;DHT22;4492;48.736;9.092;2022-07-11T03:14:16;13.20;99.90
8914;DHT22;4492;48.736;9.092;2022-07-11T03:16:41;13.30;99.90
8914;DHT22;4492;48.736;9.092;2022-07-11T03:19:07;13.20;99.90
8914;DHT22;4492;48.736;9.092;2022-07-11T03:21:32;13.20;99.90
8914;DHT22;4492;48.736;9.092;2022-07-11T03:23:58;13.20;99.90
8914;DHT22;4492;48.736;9.092;2022-07-11T03:26:24;13.20;99.90
8914;DHT22;4492;48.736;9.092;2022-07-11T03:28:49;13.20;99.90
8914;DHT22;4492;48.736;9.092;2022-07-11T03:31:15;13.20;99.90
8914;DHT22;4492;48.736;9.092;2022-07-11T03:33:40;13.20;99.90
8914;DHT22;4492;48.736;9.092;2022-07-11T03:36:06;13.30;99.90
8914;DHT22;4492;48.736;9.092;2022-07-11T03:38:32;13.30;99.90
8914;DHT22;4492;48.736;9.092;2022-07-11T03:40:57;13.30;99.90
8914;DHT22;4492;48.736;9.092;2022-07-11T03:43:23;13.40;99.90
8914;DHT22;4492;48.736;9.092;2022-07-11T03:45:49;13.30;99.90
8914;DHT22;4492;48.736;9.092;2022-07-11T03:48:14;13.40;99.90
8914;DHT22;4492;48.736;9.092;2022-07-11T03:50:40;13.30;99.90
8914;DHT22;4492;48.736;9.092;2022-07-11T03:53:06;13.30;99.90
8914;DHT22;4492;48.736;9.092;2022-07-11T03:55:32;13.40;99.90
8914;DHT22;4492;48.736;9.092;2022-07-11T03:57:58;13.40;99.90
8914;DHT22;4492;48.736;9.092;2022-07-11T04:00:24;13.40;99.90
8914;DHT22;4492;48.736;9.092;2022-07-11T04:02:49;13.50;99.90
8914;DHT22;4492;48.736;9.092;2022-07-11T04:05:15;13.50;99.90
8914;DHT22;4492;48.736;9.092;2022-07-11T04:07:41;13.40;99.90
8914;DHT22;4492;48.736;9.092;2022-07-11T04:10:08;13.50;99.90
8914;DHT22;4492;48.736;9.092;2022-07-11T04:12:34;13.50;99.90
8914;DHT22;4492;48.736;9.092;2022-07-11T04:15:00;13.50;99.90
8914;DHT22;4492;48.736;9.092;2022-07-11T04:17:26;13.50;99.90
8914;DHT22;4492;48.736;9.092;2022-07-11T04:19:52;13.50;99.90
8914;DHT22;4492;48.736;9.092;2022-07-11T04:22:18;13.50;99.90
8914;DHT22;4492;48.736;9.092;2022-07-11T04:24:44;13.50;99.90
8914;DHT22;4492;48.736;9.092;2022-07-11T04:27:09;13.60;99.90
8914;DHT22;4492;48.736;9.092;2022-07-11T04:29:35;13.60;99.90
8914;DHT22;4492;48.736;9.092;2022-07-11T04:32:01;13.70;99.90
8914;DHT22;4492;48.736;9.092;2022-07-11T04:34:26;13.70;99.90
8914;DHT22;4492;48.736;9.092;2022-07-11T04:36:52;13.70;99.90
8914;DHT22;4492;48.736;9.092;2022-07-11T04:39:17;13.80;99.90
8914;DHT22;4492;48.736;9.092;2022-07-11T04:41:43;13.90;99.90
8914;DHT22;4492;48.736;9.092;2022-07-11T04:44:08;13.90;99.90
8914;DHT22;4492;48.736;9.092;2022-07-11T04:46:34;14.00;99.90
8914;DHT22;4492;48.736;9.092;2022-07-11T04:49:00;14.10;99.90
8914;DHT22;4492;48.736;9.092;2022-07-11T04:51:25;14.10;99.90
8914;DHT22;4492;48.736;9.092;2022-07-11T04:53:51;14.20;99.90
8914;DHT22;4492;48.736;9.092;2022-07-11T04:56:17;14.20;99.90
8914;DHT22;4492;48.736;9.092;2022-07-11T04:58:43;14.30;99.90
8914;DHT22;4492;48.736;9.092;2022-07-11T05:01:09;14.30;99.90
8914;DHT22;4492;48.736;9.092;2022-07-11T05:03:35;14.40;99.90
8914;DHT22;4492;48.736;9.092;2022-07-11T05:06:02;14.50;99.90
8914;DHT22;4492;48.736;9.092;2022-07-11T05:08:28;14.50;99.90
8914;DHT22;4492;48.736;9.092;2022-07-11T05:10:54;14.60;99.90
8914;DHT22;4492;48.736;9.092;2022-07-11T05:13:20;14.70;99.90
8914;DHT22;4492;48.736;9.092;2022-07-11T05:15:45;14.80;99.90
8914;DHT22;4492;48.736;9.092;2022-07-11T05:18:11;14.90;99.90
8914;DHT22;4492;48.736;9.092;2022-07-11T05:20:37;15.00;99.90
8914;DHT22;4492;48.736;9.092;2022-07-11T05:23:02;15.10;99.90
8914;DHT22;4492;48.736;9.092;2022-07-11T05:25:28;15.10;99.90
8914;DHT22;4492;48.736;9.092;2022-07-11T05:27:54;15.20;99.90
8914;DHT22;4492;48.736;9.092;2022-07-11T05:30:20;15.30;99.90
8914;DHT22;4492;48.736;9.092;2022-07-11T05:32:46;15.30;99.90
8914;DHT22;4492;48.736;9.092;2022-07-11T05:35:11;15.60;99.90
8914;DHT22;4492;48.736;9.092;2022-07-11T05:37:37;15.70;99.90
8914;DHT22;4492;48.736;9.092;2022-07-11T05:40:03;15.80;99.90
8914;DHT22;4492;48.736;9.092;2022-07-11T05:42:31;16.00;99.90
8914;DHT22;4492;48.736;9.092;2022-07-11T05:44:56;16.10;99.90
8914;DHT22;4492;48.736;9.092;2022-07-11T05:47:22;16.20;99.90
8914;DHT22;4492;48.736;9.092;2022-07-11T05:49:47;16.30;99.90
8914;DHT22;4492;48.736;9.092;2022-07-11T05:52:13;16.50;99.90
8914;DHT22;4492;48.736;9.092;2022-07-11T05:54:39;16.50;99.90
8914;DHT22;4492;48.736;9.092;2022-07-11T05:57:05;16.50;99.90
8914;DHT22;4492;48.736;9.092;2022-07-11T05:59:30;16.50;99.90
8914;DHT22;4492;48.736;9.092;2022-07-11T06:01:56;16.50;99.90
8914;DHT22;4492;48.736;9.092;2022-07-11T06:04:22;16.40;99.90
8914;DHT22;4492;48.736;9.092;2022-07-11T06:06:47;16.40;99.90
8914;DHT22;4492;48.736;9.092;2022-07-11T06:09:14;16.50;99.90
8914;DHT22;4492;48.736;9.092;2022-07-11T06:11:40;16.60;99.90
8914;DHT22;4492;48.736;9.092;2022-07-11T06:14:06;16.70;99.90
8914;DHT22;4492;48.736;9.092;2022-07-11T06:16:32;16.70;99.90
8914;DHT22;4492;48.736;9.092;2022-07-11T06:18:58;16.80;99.90
8914;DHT22;4492;48.736;9.092;2022-07-11T06:21:24;16.90;99.90
8914;DHT22;4492;48.736;9.092;2022-07-11T06:23:50;16.90;99.90
8914;DHT22;4492;48.736;9.092;2022-07-11T06:26:16;17.00;99.90
8914;DHT22;4492;48.736;9.092;2022-07-11T06:28:42;16.90;99.90
8914;DHT22;4492;48.736;9.092;2022-07-11T06:31:08;17.00;99.90
8914;DHT22;4492;48.736;9.092;2022-07-11T06:33:34;17.10;99.90
8914;DHT22;4492;48.736;9.092;2022-07-11T06:36:04;17.10;99.90
8914;DHT22;4492;48.736;9.092;2022-07-11T06:38:30;17.10;99.90
8914;DHT22;4492;48.736;9.092;2022-07-11T06:40:55;17.20;99.90
8914;DHT22;4492;48.736;9.092;2022-07-11T06:43:21;17.40;99.90
8914;DHT22;4492;48.736;9.092;2022-07-11T06:45:47;17.50;99.90
8914;DHT22;4492;48.736;9.092;2022-07-11T06:48:13;17.60;99.90
8914;DHT22;4492;48.736;9.092;2022-07-11T06:50:39;17.70;99.90
8914;DHT22;4492;48.736;9.092;2022-07-11T06:53:05;17.80;99.90
8914;DHT22;4492;48.736;9.092;2022-07-11T06:55:31;17.80;99.90
8914;DHT22;4492;48.736;9.092;2022-07-11T06:57:57;18.00;99.90
8914;DHT22;4492;48.736;9.092;2022-07-11T07:00:23;18.00;99.90
8914;DHT22;4492;48.736;9.092;2022-07-11T07:02:49;18.10;99.90
8914;DHT22;4492;48.736;9.092;2022-07-11T07:05:15;18.10;99.90
8914;DHT22;4492;48.736;9.092;2022-07-11T07:07:40;18.20;99.90
8914;DHT22;4492;48.736;9.092;2022-07-11T07:10:06;18.10;99.90
8914;DHT22;4492;48.736;9.092;2022-07-11T07:12:32;18.30;99.90
8914;DHT22;4492;48.736;9.092;2022-07-11T07:14:59;18.30;99.90
8914;DHT22;4492;48.736;9.092;2022-07-11T07:17:25;18.40;99.90
8914;DHT22;4492;48.736;9.092;2022-07-11T07:19:51;18.50;99.90
8914;DHT22;4492;48.736;9.092;2022-07-11T07:22:16;18.50;99.90
8914;DHT22;4492;48.736;9.092;2022-07-11T07:24:43;18.70;99.90
8914;DHT22;4492;48.736;9.092;2022-07-11T07:27:10;18.80;99.90
8914;DHT22;4492;48.736;9.092;2022-07-11T07:29:35;19.00;99.40
8914;DHT22;4492;48.736;9.092;2022-07-11T07:32:01;19.20;99.00
8914;DHT22;4492;48.736;9.092;2022-07-11T07:34:26;19.20;98.70
8914;DHT22;4492;48.736;9.092;2022-07-11T07:36:52;19.20;98.50
8914;DHT22;4492;48.736;9.092;2022-07-11T07:39:18;19.10;98.40
8914;DHT22;4492;48.736;9.092;2022-07-11T07:41:44;19.10;99.00
8914;DHT22;4492;48.736;9.092;2022-07-11T07:44:10;19.00;98.60
8914;DHT22;4492;48.736;9.092;2022-07-11T07:46:36;19.10;98.70
8914;DHT22;4492;48.736;9.092;2022-07-11T07:49:02;19.30;98.30
8914;DHT22;4492;48.736;9.092;2022-07-11T07:51:28;19.40;98.30
8914;DHT22;4492;48.736;9.092;2022-07-11T07:53:54;19.60;98.20
8914;DHT22;4492;48.736;9.092;2022-07-11T07:56:20;19.70;97.70
8914;DHT22;4492;48.736;9.092;2022-07-11T07:58:46;19.80;97.40
8914;DHT22;4492;48.736;9.092;2022-07-11T08:01:11;19.70;97.00
8914;DHT22;4492;48.736;9.092;2022-07-11T08:03:56;19.70;97.20
8914;DHT22;4492;48.736;9.092;2022-07-11T08:06:21;19.80;97.70
8914;DHT22;4492;48.736;9.092;2022-07-11T08:08:47;20.00;98.00
8914;DHT22;4492;48.736;9.092;2022-07-11T08:11:13;20.30;97.10
8914;DHT22;4492;48.736;9.092;2022-07-11T08:13:39;20.60;96.10
8914;DHT22;4492;48.736;9.092;2022-07-11T08:16:05;20.80;94.90
8914;DHT22;4492;48.736;9.092;2022-07-11T08:18:35;20.80;94.40
8914;DHT22;4492;48.736;9.092;2022-07-11T08:21:02;20.80;94.20
8914;DHT22;4492;48.736;9.092;2022-07-11T08:23:28;20.80;93.20
8914;DHT22;4492;48.736;9.092;2022-07-11T08:25:54;20.70;93.60
8914;DHT22;4492;48.736;9.092;2022-07-11T08:28:19;20.60;93.80
8914;DHT22;4492;48.736;9.092;2022-07-11T08:30:45;20.30;94.50
8914;DHT22;4492;48.736;9.092;2022-07-11T08:33:12;20.10;93.70
8914;DHT22;4492;48.736;9.092;2022-07-11T08:35:38;20.20;93.60
8914;DHT22;4492;48.736;9.092;2022-07-11T08:38:03;20.10;93.70
8914;DHT22;4492;48.736;9.092;2022-07-11T08:40:29;19.90;94.30
8914;DHT22;4492;48.736;9.092;2022-07-11T08:42:56;19.70;94.40
8914;DHT22;4492;48.736;9.092;2022-07-11T08:45:29;19.60;94.50
8914;DHT22;4492;48.736;9.092;2022-07-11T08:47:56;19.50;94.30
8914;DHT22;4492;48.736;9.092;2022-07-11T08:50:22;19.70;93.80
8914;DHT22;4492;48.736;9.092;2022-07-11T08:52:48;19.80;93.60
8914;DHT22;4492;48.736;9.092;2022-07-11T08:55:14;20.10;93.50
8914;DHT22;4492;48.736;9.092;2022-07-11T08:57:40;20.30;93.00
8914;DHT22;4492;48.736;9.092;2022-07-11T09:00:07;20.60;92.50
8914;DHT22;4492;48.736;9.092;2022-07-11T09:02:35;20.80;92.20
8914;DHT22;4492;48.736;9.092;2022-07-11T09:05:03;21.10;91.90
8914;DHT22;4492;48.736;9.092;2022-07-11T09:07:32;21.30;90.20
8914;DHT22;4492;48.736;9.092;2022-07-11T09:09:57;21.40;88.70
8914;DHT22;4492;48.736;9.092;2022-07-11T09:12:23;21.30;88.90
8914;DHT22;4492;48.736;9.092;2022-07-11T09:14:49;21.30;89.50
8914;DHT22;4492;48.736;9.092;2022-07-11T09:17:24;21.40;88.80
8914;DHT22;4492;48.736;9.092;2022-07-11T09:19:51;21.50;90.10
8914;DHT22;4492;48.736;9.092;2022-07-11T09:22:17;21.70;87.00
8914;DHT22;4492;48.736;9.092;2022-07-11T09:25:06;21.40;88.50
8914;DHT22;4492;48.736;9.092;2022-07-11T09:27:52;21.20;89.30
8914;DHT22;4492;48.736;9.092;2022-07-11T09:30:29;21.00;89.80
8914;DHT22;4492;48.736;9.092;2022-07-11T09:33:03;21.00;90.10
8914;DHT22;4492;48.736;9.092;2022-07-11T09:37:58;20.90;87.60
8914;DHT22;4492;48.736;9.092;2022-07-11T09:40:24;20.80;87.50
8914;DHT22;4492;48.736;9.092;2022-07-11T09:42:55;20.90;88.20
8914;DHT22;4492;48.736;9.092;2022-07-11T09:45:26;21.10;87.50
8914;DHT22;4492;48.736;9.092;2022-07-11T09:47:56;21.30;87.00
8914;DHT22;4492;48.736;9.092;2022-07-11T09:50:27;21.60;86.50
8914;DHT22;4492;48.736;9.092;2022-07-11T09:53:07;21.80;87.10
8914;DHT22;4492;48.736;9.092;2022-07-11T09:55:36;21.80;86.20
8914;DHT22;4492;48.736;9.092;2022-07-11T09:58:06;22.00;86.10
8914;DHT22;4492;48.736;9.092;2022-07-11T10:00:33;22.20;84.00
8914;DHT22;4492;48.736;9.092;2022-07-11T10:02:59;22.10;84.50
8914;DHT22;4492;48.736;9.092;2022-07-11T10:05:25;22.20;84.20
8914;DHT22;4492;48.736;9.092;2022-07-11T10:07:51;22.20;82.50
8914;DHT22;4492;48.736;9.092;2022-07-11T10:10:17;22.10;83.20
8914;DHT22;4492;48.736;9.092;2022-07-11T10:12:46;22.10;83.80
8914;DHT22;4492;48.736;9.092;2022-07-11T10:15:15;22.10;84.10
8914;DHT22;4492;48.736;9.092;2022-07-11T10:17:51;22.00;84.30
8914;DHT22;4492;48.736;9.092;2022-07-11T10:25:49;22.40;83.90
8914;DHT22;4492;48.736;9.092;2022-07-11T10:28:35;22.70;83.30
8914;DHT22;4492;48.736;9.092;2022-07-11T10:31:01;22.90;82.70
8914;DHT22;4492;48.736;9.092;2022-07-11T10:33:30;23.00;82.50
8914;DHT22;4492;48.736;9.092;2022-07-11T10:35:56;22.90;83.20
8914;DHT22;4492;48.736;9.092;2022-07-11T10:38:23;23.00;82.90
8914;DHT22;4492;48.736;9.092;2022-07-11T10:40:50;23.00;81.70
8914;DHT22;4492;48.736;9.092;2022-07-11T10:43:33;22.90;83.50
8914;DHT22;4492;48.736;9.092;2022-07-11T10:46:07;22.70;82.20
8914;DHT22;4492;48.736;9.092;2022-07-11T10:48:35;22.50;82.70
8914;DHT22;4492;48.736;9.092;2022-07-11T10:51:10;22.30;83.40
8914;DHT22;4492;48.736;9.092;2022-07-11T10:53:48;22.20;84.50
8914;DHT22;4492;48.736;9.092;2022-07-11T11:01:33;22.60;82.00
8914;DHT22;4492;48.736;9.092;2022-07-11T11:07:02;22.70;81.10
8914;DHT22;4492;48.736;9.092;2022-07-11T11:09:37;22.70;81.10
8914;DHT22;4492;48.736;9.092;2022-07-11T11:12:03;22.80;82.20
8914;DHT22;4492;48.736;9.092;2022-07-11T11:14:29;23.20;81.70
8914;DHT22;4492;48.736;9.092;2022-07-11T11:16:55;23.70;80.20
8914;DHT22;4492;48.736;9.092;2022-07-11T11:22:14;24.40;77.30
8914;DHT22;4492;48.736;9.092;2022-07-11T11:24:44;24.50;77.00
8914;DHT22;4492;48.736;9.092;2022-07-11T11:27:21;24.40;77.50
8914;DHT22;4492;48.736;9.092;2022-07-11T11:29:53;24.10;78.10
8914;DHT22;4492;48.736;9.092;2022-07-11T11:32:21;24.10;78.30
8914;DHT22;4492;48.736;9.092;2022-07-11T11:34:48;24.40;77.20
8914;DHT22;4492;48.736;9.092;2022-07-11T11:37:16;24.50;75.60
8914;DHT22;4492;48.736;9.092;2022-07-11T11:39:42;24.40;75.90
8914;DHT22;4492;48.736;9.092;2022-07-11T11:42:16;24.20;75.50
8914;DHT22;4492;48.736;9.092;2022-07-11T11:44:52;24.40;75.40
8914;DHT22;4492;48.736;9.092;2022-07-11T11:47:18;24.70;75.60
8914;DHT22;4492;48.736;9.092;2022-07-11T11:49:44;25.00;74.30
8914;DHT22;4492;48.736;9.092;2022-07-11T11:52:11;24.60;73.60
8914;DHT22;4492;48.736;9.092;2022-07-11T11:54:37;24.20;74.80
8914;DHT22;4492;48.736;9.092;2022-07-11T11:57:09;24.00;76.40
8914;DHT22;4492;48.736;9.092;2022-07-11T11:59:39;24.10;77.50
8914;DHT22;4492;48.736;9.092;2022-07-11T12:02:05;24.50;75.90
8914;DHT22;4492;48.736;9.092;2022-07-11T12:04:32;24.60;75.40
8914;DHT22;4492;48.736;9.092;2022-07-11T12:06:59;24.60;74.60
8914;DHT22;4492;48.736;9.092;2022-07-11T12:09:27;24.50;74.50
8914;DHT22;4492;48.736;9.092;2022-07-11T12:12:11;24.30;75.20
8914;DHT22;4492;48.736;9.092;2022-07-11T12:14:55;24.40;75.40
8914;DHT22;4492;48.736;9.092;2022-07-11T12:17:28;24.40;75.30
8914;DHT22;4492;48.736;9.092;2022-07-11T12:19:56;24.40;75.80
8914;DHT22;4492;48.736;9.092;2022-07-11T12:22:22;24.50;76.20
8914;DHT22;4492;48.736;9.092;2022-07-11T12:24:51;24.70;75.70
8914;DHT22;4492;48.736;9.092;2022-07-11T12:27:24;24.60;76.10
8914;DHT22;4492;48.736;9.092;2022-07-11T12:29:50;24.00;76.70
8914;DHT22;4492;48.736;9.092;2022-07-11T12:32:17;24.00;77.80
8914;DHT22;4492;48.736;9.092;2022-07-11T12:34:45;24.20;77.10
8914;DHT22;4492;48.736;9.092;2022-07-11T12:37:19;24.20;76.20
8914;DHT22;4492;48.736;9.092;2022-07-11T12:39:51;24.00;76.80
8914;DHT22;4492;48.736;9.092;2022-07-11T12:47:28;24.40;78.00
8914;DHT22;4492;48.736;9.092;2022-07-11T12:49:55;24.70;77.80
8914;DHT22;4492;48.736;9.092;2022-07-11T12:52:21;25.00;74.90
8914;DHT22;4492;48.736;9.092;2022-07-11T12:54:47;25.00;72.90
8914;DHT22;4492;48.736;9.092;2022-07-11T12:57:20;24.80;74.40
8914;DHT22;4492;48.736;9.092;2022-07-11T12:59:45;24.70;75.20
8914;DHT22;4492;48.736;9.092;2022-07-11T13:02:12;24.50;76.40
8914;DHT22;4492;48.736;9.092;2022-07-11T13:04:40;24.30;77.70
8914;DHT22;4492;48.736;9.092;2022-07-11T13:07:29;24.20;77.70
8914;DHT22;4492;48.736;9.092;2022-07-11T13:10:25;24.30;79.30
8914;DHT22;4492;48.736;9.092;2022-07-11T13:12:53;24.70;75.90
8914;DHT22;4492;48.736;9.092;2022-07-11T13:15:20;25.00;75.20
8914;DHT22;4492;48.736;9.092;2022-07-11T13:17:51;25.20;75.70
8914;DHT22;4492;48.736;9.092;2022-07-11T13:20:22;25.40;74.90
8914;DHT22;4492;48.736;9.092;2022-07-11T13:22:49;25.40;74.90
8914;DHT22;4492;48.736;9.092;2022-07-11T13:25:16;25.40;73.00
8914;DHT22;4492;48.736;9.092;2022-07-11T13:27:44;25.20;74.10
8914;DHT22;4492;48.736;9.092;2022-07-11T13:30:12;25.00;75.40
8914;DHT22;4492;48.736;9.092;2022-07-11T13:32:43;24.90;76.10
8914;DHT22;4492;48.736;9.092;2022-07-11T13:35:10;24.90;75.20
8914;DHT22;4492;48.736;9.092;2022-07-11T13:37:36;24.80;74.30
8914;DHT22;4492;48.736;9.092;2022-07-11T13:40:05;24.80;75.10
8914;DHT22;4492;48.736;9.092;2022-07-11T13:42:31;24.80;75.50
8914;DHT22;4492;48.736;9.092;2022-07-11T13:45:01;24.90;75.60
8914;DHT22;4492;48.736;9.092;2022-07-11T13:47:26;24.90;75.60
8914;DHT22;4492;48.736;9.092;2022-07-11T13:49:52;25.00;76.10
8914;DHT22;4492;48.736;9.092;2022-07-11T13:52:17;25.30;75.30
8914;DHT22;4492;48.736;9.092;2022-07-11T13:54:43;25.40;75.40
8914;DHT22;4492;48.736;9.092;2022-07-11T13:57:09;25.50;75.60
8914;DHT22;4492;48.736;9.092;2022-07-11T13:59:34;25.40;74.40
8914;DHT22;4492;48.736;9.092;2022-07-11T14:02:02;25.40;74.90
8914;DHT22;4492;48.736;9.092;2022-07-11T14:04:27;25.20;74.20
8914;DHT22;4492;48.736;9.092;2022-07-11T14:06:53;25.20;74.90
8914;DHT22;4492;48.736;9.092;2022-07-11T14:09:19;25.20;73.50
8914;DHT22;4492;48.736;9.092;2022-07-11T14:11:44;25.20;74.70
8914;DHT22;4492;48.736;9.092;2022-07-11T14:14:10;25.50;74.00
8914;DHT22;4492;48.736;9.092;2022-07-11T14:16:36;25.70;73.60
8914;DHT22;4492;48.736;9.092;2022-07-11T14:19:01;26.00;73.90
8914;DHT22;4492;48.736;9.092;2022-07-11T14:21:30;26.30;73.00
8914;DHT22;4492;48.736;9.092;2022-07-11T14:23:56;26.40;70.90
8914;DHT22;4492;48.736;9.092;2022-07-11T14:26:22;26.30;70.70
8914;DHT22;4492;48.736;9.092;2022-07-11T14:28:47;26.40;70.60
8914;DHT22;4492;48.736;9.092;2022-07-11T14:31:15;26.00;73.90
8914;DHT22;4492;48.736;9.092;2022-07-11T14:33:44;25.90;73.80
8914;DHT22;4492;48.736;9.092;2022-07-11T14:36:10;25.80;74.20
8914;DHT22;4492;48.736;9.092;2022-07-11T14:38:35;25.60;73.50
8914;DHT22;4492;48.736;9.092;2022-07-11T14:41:01;25.40;74.20
8914;DHT22;4492;48.736;9.092;2022-07-11T14:43:27;25.00;76.40
8914;DHT22;4492;48.736;9.092;2022-07-11T14:45:56;24.90;75.00
8914;DHT22;4492;48.736;9.092;2022-07-11T14:48:22;24.90;75.30
8914;DHT22;4492;48.736;9.092;2022-07-11T14:50:47;24.80;76.00
8914;DHT22;4492;48.736;9.092;2022-07-11T14:53:13;24.60;76.80
8914;DHT22;4492;48.736;9.092;2022-07-11T14:55:38;24.50;77.10
8914;DHT22;4492;48.736;9.092;2022-07-11T14:58:04;24.30;77.70
8914;DHT22;4492;48.736;9.092;2022-07-11T15:00:30;24.40;78.90
8914;DHT22;4492;48.736;9.092;2022-07-11T15:02:57;24.30;79.60
8914;DHT22;4492;48.736;9.092;2022-07-11T15:05:42;24.60;77.50
8914;DHT22;4492;48.736;9.092;2022-07-11T15:08:08;25.10;77.50
8914;DHT22;4492;48.736;9.092;2022-07-11T15:10:52;25.40;77.00
8914;DHT22;4492;48.736;9.092;2022-07-11T15:13:36;25.00;77.70
8914;DHT22;4492;48.736;9.092;2022-07-11T15:16:02;25.50;75.50
8914;DHT22;4492;48.736;9.092;2022-07-11T15:18:28;26.00;74.10
8914;DHT22;4492;48.736;9.092;2022-07-11T15:20:54;26.20;72.10
8914;DHT22;4492;48.736;9.092;2022-07-11T15:23:20;26.30;71.80
8914;DHT22;4492;48.736;9.092;2022-07-11T15:25:45;26.70;69.60
8914;DHT22;4492;48.736;9.092;2022-07-11T15:28:11;27.10;68.30
8914;DHT22;4492;48.736;9.092;2022-07-11T15:30:37;27.20;67.60
8914;DHT22;4492;48.736;9.092;2022-07-11T15:33:02;27.40;67.50
8914;DHT22;4492;48.736;9.092;2022-07-11T15:35:28;27.60;67.30
8914;DHT22;4492;48.736;9.092;2022-07-11T15:37:54;28.00;65.80
8914;DHT22;4492;48.736;9.092;2022-07-11T15:40:19;27.80;65.40
8914;DHT22;4492;48.736;9.092;2022-07-11T15:42:45;27.80;66.30
8914;DHT22;4492;48.736;9.092;2022-07-11T15:45:10;27.60;65.60
8914;DHT22;4492;48.736;9.092;2022-07-11T15:47:39;27.30;66.20
8914;DHT22;4492;48.736;9.092;2022-07-11T15:50:06;26.90;67.60
8914;DHT22;4492;48.736;9.092;2022-07-11T15:52:32;26.10;70.10
8914;DHT22;4492;48.736;9.092;2022-07-11T15:54:57;25.70;72.00
8914;DHT22;4492;48.736;9.092;2022-07-11T15:57:23;25.70;72.20
8914;DHT22;4492;48.736;9.092;2022-07-11T15:59:48;25.60;72.00
8914;DHT22;4492;48.736;9.092;2022-07-11T16:02:14;25.70;70.80
8914;DHT22;4492;48.736;9.092;2022-07-11T16:04:39;25.90;70.80
8914;DHT22;4492;48.736;9.092;2022-07-11T16:07:05;26.50;69.90
8914;DHT22;4492;48.736;9.092;2022-07-11T16:09:31;26.90;67.00
8914;DHT22;4492;48.736;9.092;2022-07-11T16:11:56;27.00;66.20
8914;DHT22;4492;48.736;9.092;2022-07-11T16:14:23;27.30;67.30
8914;DHT22;4492;48.736;9.092;2022-07-11T16:16:49;27.70;66.10
8914;DHT22;4492;48.736;9.092;2022-07-11T16:19:15;27.40;65.80
8914;DHT22;4492;48.736;9.092;2022-07-11T16:21:40;27.20;65.90
8914;DHT22;4492;48.736;9.092;2022-07-11T16:24:06;27.30;66.90
8914;DHT22;4492;48.736;9.092;2022-07-11T16:26:32;27.40;66.30